Port Griffith, Pennsylvania
Current Conditions -  °F | °C
As of 10:54 PM on Friday 24 Oct 2014 (Local Time) from KAVP Reporting Station
Clear Clear  
Wind Chill: 51°   Ceiling: Unl
Heat Index: 51°   Visibility: 10mi
Dew Point: 35°   Wind: 5mph
Humidity: 54%   Direction: 340°NNW
Pressure: 29.91"   Gusts: NA
Location:  41.2973°N, 75.7399°W
Report Text: KAVP 250254Z AUTO 34004KT 10SM CLR 11/02 A2991 RMK AO2 SLP127 T01060017 50010
Loading
Personal Weather Stations






























Interactive Weather Map
Tropical Storm Tracking
New forecast layout! Learn more

10-Day Weather Forecast

Advertisements
Track Severe Weather on mobile